Airfield :
LOGIN :

Register | Disclaimer

   EN    FR    IT 

 










Legend :    VFR   Marginal VFR   IFR   Intensive IFR   Very Intensive IFR
Visi :
Ceiling :
>= 8 km
>= 3000ft
5 to 8 km
1000 to 3000 ft
1500m to 5 km
500 to 1000 ft
800 to 1500m
200 to 500 ft
< 800m
< 200 ft
Symbols :   Thunderstorms  Fog  Heavy snow  Heavy precipitations  Wind > 20 kt
SIGMETs :     Misc.  Thunderstorms  Icing  Turbulence  Mountain Waves  Volcanic Ashes






- Airport Elevation : 141 ft
- IATA code : SKS


EKSP - Srydstrup Vojens

CURRENT METAR :
  • 161250Z 21014KT 9999 BKN009 BKN036 OVC080 06/05 Q1002 TEMPO 6000 -SHRA BKN020CB

EXPIRED METARs :
  • 161220Z 21016KT 9999 BKN009 BKN036 OVC080 06/05 Q1002 TEMPO 6000 -SHRA BKN020CB
  • 161150Z 21015KT 9999 SCT010 BKN036 BKN080 06/04 Q1002 TEMPO 6000 -SHRA BKN020CB
  • 161120Z 20015KT 9999 FEW011 BKN036 BKN080 06/04 Q1002 TEMPO 6000 -SHRA BKN020CB
  • 161051Z 21015KT 9999 -RA FEW011 SCT036 BKN080 06/04 Q1002 TEMPO 6000 BKN020CB
  • 161020Z 20014KT 9999 FEW011 BKN080 BKN200 05/04 Q1002 TEMPO 6000 -SHRA BKN020CB

TAF AMD TAF EKSP
Valid from the 16 at 12:00 until the 17 at 12:00 UTC


161315Z 1612/1712 21010KT 9000 SCT020
TEMPO 1613/1617 6000 -SHRA BKN008 BKN015CB
TEMPO 1617/1624 3000 BR BKN005
BECMG 1700/1702 16008KT 2500 -RADZ BR BKN006
TEMPO 1702/1709 5000 RADZ BKN012
TEMPO 1709/1712 0200 FG VV001



MET'MAP, your aeronautical weather chart ! - Copyright ORBIFLY December 2007 - Disclaimer

ORBIFLY MET'MAP TEAM :

Programming & Development : Alexandra Zaïnal
Concept & original design : Baudouin d'Aumeries
Assistance for programming : Marc-Olivier Méhu
Technical & hardware support : Manuel Goepfert

Contact : metmap@orbifly.com




SOURCES & CREDITS :

   NOAA